createdAt,value
2023-05-22T00:00:13.941Z,100077.72
2023-05-22T00:02:43.579Z,100079.50
2023-05-22T00:05:14.517Z,100066.09
2023-05-22T00:07:42.938Z,100071.50
2023-05-22T00:10:09.989Z,100067.03
2023-05-22T00:12:36.416Z,100068.75
2023-05-22T00:15:03.911Z,100061.72
2023-05-22T00:17:31.027Z,100061.75
2023-05-22T00:20:04.478Z,100060.97
2023-05-22T00:22:31.594Z,100056.69
2023-05-22T00:24:58.209Z,100050.50
2023-05-22T00:27:24.752Z,100052.28
2023-05-22T00:29:51.139Z,100041.53
2023-05-22T00:32:17.499Z,100046.97
2023-05-22T00:34:43.952Z,100056.69
2023-05-22T00:37:10.798Z,100047.00
2023-05-22T00:39:37.177Z,100050.66
2023-05-22T00:42:03.894Z,100050.59
2023-05-22T00:44:30.368Z,100053.31
2023-05-22T00:46:57.063Z,100059.56
2023-05-22T00:49:23.528Z,100055.19
2023-05-22T00:51:50.208Z,100058.75
2023-05-22T00:54:17.155Z,100059.69
2023-05-22T00:56:43.878Z,100058.81
2023-05-22T00:59:10.416Z,100056.16
2023-05-22T01:01:42.222Z,100058.88
2023-05-22T01:04:12.896Z,100060.63
2023-05-22T01:06:41.225Z,100061.59
2023-05-22T01:09:08.095Z,100060.56
2023-05-22T01:11:53.334Z,100053.47
2023-05-22T01:15:02.738Z,100058.78
2023-05-22T01:17:40.677Z,100057.13
2023-05-22T01:20:16.818Z,100061.59
2023-05-22T01:23:20.616Z,100061.63
2023-05-22T01:26:08.211Z,100067.91
2023-05-22T01:28:52.501Z,100062.63
2023-05-22T01:31:24.788Z,100058.22
2023-05-22T01:33:54.616Z,100064.44
2023-05-22T01:36:24.595Z,100056.47
2023-05-22T01:38:52.703Z,100065.34
2023-05-22T01:41:19.314Z,100061.84
2023-05-22T01:43:46.443Z,100056.50
2023-05-22T01:46:13.206Z,100060.97
2023-05-22T01:48:39.582Z,100067.25
2023-05-22T01:51:18.871Z,100057.50
2023-05-22T01:53:55.172Z,100059.25
2023-05-22T01:56:34.523Z,100058.41
2023-05-22T01:59:08.640Z,100059.25
2023-05-22T02:01:38.245Z,100056.59
2023-05-22T02:04:05.795Z,100061.06
2023-05-22T02:06:33.325Z,100064.63
2023-05-22T02:09:02.008Z,100062.81
2023-05-22T02:11:32.313Z,100065.47
2023-05-22T02:13:58.793Z,100066.41
2023-05-22T02:16:25.241Z,100061.13
2023-05-22T02:18:54.057Z,100058.47
2023-05-22T02:21:22.129Z,100064.72
2023-05-22T02:23:48.477Z,100070.97
2023-05-22T02:26:14.799Z,100056.78
2023-05-22T02:28:42.875Z,100066.53
2023-05-22T02:31:09.279Z,100062.97
2023-05-22T02:33:35.690Z,100068.28
2023-05-22T02:36:02.295Z,100055.91
2023-05-22T02:38:28.635Z,100058.56
2023-05-22T02:40:55.010Z,100057.69
2023-05-22T02:43:21.454Z,100057.72
2023-05-22T02:45:47.836Z,100061.25
2023-05-22T02:48:14.214Z,100060.34
2023-05-22T02:50:40.976Z,100056.69
2023-05-22T02:53:08.317Z,100048.69
2023-05-22T02:55:34.699Z,100055.78
2023-05-22T02:58:01.142Z,100049.63
2023-05-22T03:00:27.662Z,100053.19
2023-05-22T03:02:54.094Z,100044.38
2023-05-22T03:05:20.575Z,100047.06
2023-05-22T03:07:48.823Z,100042.63
2023-05-22T03:10:15.500Z,100052.31
2023-05-22T03:12:41.887Z,100057.69
2023-05-22T03:15:08.854Z,100055.09
2023-05-22T03:17:35.286Z,100058.59
2023-05-22T03:20:01.794Z,100050.59
2023-05-22T03:22:28.132Z,100047.94
2023-05-22T03:24:54.514Z,100049.75
2023-05-22T03:27:21.172Z,100045.31
2023-05-22T03:29:47.502Z,100058.66
2023-05-22T03:32:13.843Z,100044.53
2023-05-22T03:34:40.340Z,100048.09
2023-05-22T03:37:06.805Z,100057.00
2023-05-22T03:39:33.194Z,100065.88
2023-05-22T03:41:59.561Z,100060.56
2023-05-22T03:44:25.946Z,100052.56
2023-05-22T03:46:52.347Z,100052.56
2023-05-22T03:49:18.690Z,100047.19
2023-05-22T03:51:45.097Z,100054.22
2023-05-22T03:54:11.508Z,100056.91
2023-05-22T03:56:37.877Z,100058.66
2023-05-22T03:59:04.233Z,100058.66
2023-05-22T04:01:30.912Z,100060.31
2023-05-22T04:03:57.359Z,100060.31
2023-05-22T04:06:23.730Z,100061.06
2023-05-22T04:08:50.164Z,100061.06
2023-05-22T04:11:19.681Z,100060.06
2023-05-22T04:13:46.015Z,100059.19
2023-05-22T04:16:12.443Z,100063.50
2023-05-22T04:18:38.924Z,100067.00
2023-05-22T04:21:08.089Z,100069.63
2023-05-22T04:23:34.526Z,100072.25
2023-05-22T04:26:02.491Z,100073.16
2023-05-22T04:28:30.322Z,100079.34
2023-05-22T04:31:00.534Z,100085.53
2023-05-22T04:33:26.919Z,100077.50
2023-05-22T04:35:54.364Z,100084.50
2023-05-22T04:38:21.762Z,100094.19
2023-05-22T04:40:48.285Z,100092.34
2023-05-22T04:43:14.689Z,100094.88
2023-05-22T04:45:42.257Z,100097.41
2023-05-22T04:48:08.763Z,100107.97
2023-05-22T04:50:35.943Z,100098.06
2023-05-22T04:53:04.132Z,100108.59
2023-05-22T04:55:33.707Z,100094.38
2023-05-22T04:58:00.277Z,100106.69
2023-05-22T05:00:28.660Z,100103.84
2023-05-22T05:02:55.183Z,100108.13
2023-05-22T05:05:21.817Z,100116.88
2023-05-22T05:07:50.200Z,100108.69
2023-05-22T05:10:16.861Z,100102.38
2023-05-22T05:12:43.679Z,100104.75
2023-05-22T05:15:10.408Z,100105.44
2023-05-22T05:17:36.874Z,100110.47
2023-05-22T05:20:06.972Z,100106.66
2023-05-22T05:22:33.611Z,100117.78
2023-05-22T05:24:59.993Z,100105.09
2023-05-22T05:27:26.448Z,100112.00
2023-05-22T05:29:52.832Z,100112.66
2023-05-22T05:32:19.271Z,100107.25
2023-05-22T05:34:46.256Z,100107.09
2023-05-22T05:37:12.655Z,100105.91
2023-05-22T05:39:39.044Z,100102.34
2023-05-22T05:42:05.643Z,100111.09
2023-05-22T05:44:32.286Z,100109.09
2023-05-22T05:46:58.703Z,100113.34
2023-05-22T05:49:25.087Z,100116.66
2023-05-22T05:51:51.469Z,100118.34
2023-05-22T05:54:17.897Z,100125.47
2023-05-22T05:56:44.347Z,100116.38
2023-05-22T05:59:10.832Z,100115.56
2023-05-22T06:01:38.504Z,100121.44
2023-05-22T06:04:05.369Z,100126.66
2023-05-22T06:06:39.129Z,100133.47
2023-05-22T06:09:06.542Z,100130.38
2023-05-22T06:11:33.842Z,100132.50
2023-05-22T06:14:02.697Z,100136.28
2023-05-22T06:16:29.490Z,100127.63
2023-05-22T06:18:57.200Z,100121.81
2023-05-22T06:21:24.413Z,100132.03
2023-05-22T06:23:51.614Z,100133.34
2023-05-22T06:26:18.049Z,100122.06
2023-05-22T06:28:45.543Z,100135.66
2023-05-22T06:31:12.153Z,100125.44
2023-05-22T06:33:40.563Z,100123.19
2023-05-22T06:36:08.785Z,100128.31
2023-05-22T06:38:35.214Z,100131.25
2023-05-22T06:41:01.845Z,100128.31
2023-05-22T06:43:28.224Z,100130.41
2023-05-22T06:45:54.627Z,100131.53
2023-05-22T06:48:21.024Z,100137.94
2023-05-22T06:50:47.511Z,100132.56
2023-05-22T06:53:14.032Z,100127.44
2023-05-22T06:55:40.396Z,100132.53
2023-05-22T06:58:06.935Z,100127.13
2023-05-22T07:00:33.333Z,100128.56
2023-05-22T07:02:59.777Z,100146.59
2023-05-22T07:05:26.223Z,100138.09
2023-05-22T07:07:52.649Z,100149.66
2023-05-22T07:10:19.035Z,100139.38
2023-05-22T07:12:45.401Z,100138.38
2023-05-22T07:15:14.285Z,100148.75
2023-05-22T07:17:41.666Z,100144.06
2023-05-22T07:20:09.616Z,100143.59
2023-05-22T07:22:35.992Z,100141.69
2023-05-22T07:25:02.364Z,100144.78
2023-05-22T07:27:28.694Z,100139.88
2023-05-22T07:29:55.038Z,100151.72
2023-05-22T07:32:21.427Z,100148.88
2023-05-22T07:34:47.992Z,100145.38
2023-05-22T07:37:15.622Z,100149.19
2023-05-22T07:39:42.420Z,100138.53
2023-05-22T07:42:08.904Z,100136.34
2023-05-22T07:44:35.445Z,100133.84
2023-05-22T07:47:01.792Z,100146.72
2023-05-22T07:49:28.202Z,100141.91
2023-05-22T07:51:55.803Z,100135.56
2023-05-22T07:54:22.141Z,100132.84
2023-05-22T07:56:48.654Z,100136.47
2023-05-22T07:59:16.018Z,100142.97
2023-05-22T08:01:42.449Z,100142.06
2023-05-22T08:04:09.160Z,100145.66
2023-05-22T08:06:35.995Z,100151.28
2023-05-22T08:09:03.348Z,100140.78
2023-05-22T08:11:29.809Z,100139.47
2023-05-22T08:13:56.405Z,100153.72
2023-05-22T08:16:23.102Z,100152.13
2023-05-22T08:18:49.851Z,100152.66
2023-05-22T08:21:16.329Z,100147.91
2023-05-22T08:23:42.813Z,100155.28
2023-05-22T08:26:09.478Z,100148.72
2023-05-22T08:28:36.828Z,100150.47
2023-05-22T08:31:03.292Z,100154.13
2023-05-22T08:33:29.813Z,100148.00
2023-05-22T08:35:56.238Z,100142.69
2023-05-22T08:38:22.627Z,100149.56
2023-05-22T08:40:50.077Z,100151.13
2023-05-22T08:43:16.750Z,100144.59
2023-05-22T08:45:44.059Z,100155.28
2023-05-22T08:48:13.364Z,100142.88
2023-05-22T08:50:43.322Z,100150.13
2023-05-22T08:53:13.508Z,100146.34
2023-05-22T08:55:40.434Z,100153.94
2023-05-22T08:58:08.602Z,100143.78
2023-05-22T09:00:35.125Z,100137.72
2023-05-22T09:03:01.928Z,100141.06
2023-05-22T09:05:28.362Z,100134.53
2023-05-22T09:07:56.594Z,100145.41
2023-05-22T09:10:25.542Z,100138.50
2023-05-22T09:13:09.227Z,100132.63
2023-05-22T09:15:38.724Z,100138.41
2023-05-22T09:18:05.943Z,100128.94
2023-05-22T09:20:37.696Z,100130.88
2023-05-22T09:23:12.430Z,100141.06
2023-05-22T09:25:38.864Z,100129.41
2023-05-22T09:28:05.874Z,100132.38
2023-05-22T09:30:36.115Z,100130.22
2023-05-22T09:33:04.094Z,100127.97
2023-05-22T09:35:35.464Z,100129.00
2023-05-22T09:38:01.949Z,100125.34
2023-05-22T09:40:29.319Z,100128.00
2023-05-22T09:42:55.701Z,100133.38
2023-05-22T09:45:26.333Z,100132.69
2023-05-22T09:47:52.815Z,100127.47
2023-05-22T09:50:19.452Z,100135.09
2023-05-22T09:52:46.835Z,100134.69
2023-05-22T09:55:14.031Z,100128.13
2023-05-22T09:57:40.428Z,100131.34
2023-05-22T10:00:15.429Z,100127.50
2023-05-22T10:02:53.718Z,100125.72
2023-05-22T10:05:21.979Z,100122.00
2023-05-22T10:07:57.175Z,100121.56
2023-05-22T10:10:25.197Z,100122.22
2023-05-22T10:13:06.370Z,100130.47
2023-05-22T10:15:32.841Z,100117.75
2023-05-22T10:17:59.279Z,100115.66
2023-05-22T10:20:26.818Z,100121.28
2023-05-22T10:22:54.134Z,100112.00
2023-05-22T10:25:23.356Z,100118.56
2023-05-22T10:27:53.021Z,100118.56
2023-05-22T10:30:36.378Z,100110.44
2023-05-22T10:33:14.458Z,100108.44
2023-05-22T10:35:51.296Z,100101.28
2023-05-22T10:39:05.121Z,100096.41
2023-05-22T10:41:31.857Z,100100.13
2023-05-22T10:43:58.333Z,100096.72
2023-05-22T10:46:25.370Z,100094.53
2023-05-22T10:48:54.215Z,100092.59
2023-05-22T10:51:23.850Z,100090.50
2023-05-22T10:53:58.752Z,100090.91
2023-05-22T10:56:33.129Z,100089.38
2023-05-22T10:59:05.206Z,100086.97
2023-05-22T11:01:37.482Z,100092.16
2023-05-22T11:04:03.993Z,100078.47
2023-05-22T11:06:47.574Z,100081.69
2023-05-22T11:09:33.934Z,100082.50
2023-05-22T11:12:17.265Z,100076.66
2023-05-22T11:14:49.297Z,100075.25
2023-05-22T11:17:29.179Z,100076.09
2023-05-22T11:20:06.006Z,100079.59
2023-05-22T11:22:37.151Z,100069.84
2023-05-22T11:25:07.077Z,100074.09
2023-05-22T11:27:33.828Z,100065.41
2023-05-22T11:30:01.175Z,100071.00
2023-05-22T11:32:28.121Z,100066.25
2023-05-22T11:34:57.321Z,100069.25
2023-05-22T11:37:24.203Z,100067.56
2023-05-22T11:39:57.719Z,100062.16
2023-05-22T11:42:25.007Z,100063.84
2023-05-22T11:44:51.514Z,100056.53
2023-05-22T11:47:18.405Z,100051.63
2023-05-22T11:49:44.905Z,100056.91
2023-05-22T11:52:11.351Z,100059.38
2023-05-22T11:54:38.943Z,100054.94
2023-05-22T11:57:07.979Z,100051.84
2023-05-22T11:59:37.538Z,100048.47
2023-05-22T12:02:04.118Z,100044.34
2023-05-22T12:04:32.353Z,100046.22
2023-05-22T12:06:59.522Z,100045.38
2023-05-22T12:09:28.805Z,100045.66
2023-05-22T12:11:56.809Z,100042.00
2023-05-22T12:14:28.136Z,100030.00
2023-05-22T12:16:55.307Z,100042.78
2023-05-22T12:19:22.127Z,100037.56
2023-05-22T12:21:52.361Z,100034.31
2023-05-22T12:24:27.953Z,100035.31
2023-05-22T12:26:54.589Z,100026.25
2023-05-22T12:29:24.858Z,100035.97
2023-05-22T12:31:51.769Z,100043.88
2023-05-22T12:34:18.910Z,100029.94
2023-05-22T12:36:46.589Z,100025.34
2023-05-22T12:39:17.830Z,100029.84
2023-05-22T12:41:45.597Z,100019.13
2023-05-22T12:44:12.940Z,100021.31
2023-05-22T12:46:40.863Z,100019.41
2023-05-22T12:49:07.311Z,100022.72
2023-05-22T12:51:34.207Z,100024.31
2023-05-22T12:54:01.943Z,100016.16
2023-05-22T12:56:31.701Z,100012.94
2023-05-22T12:58:58.509Z,100015.53
2023-05-22T13:01:26.154Z,100017.69
2023-05-22T13:03:53.054Z,100019.66
2023-05-22T13:06:19.980Z,100024.84
2023-05-22T13:08:46.376Z,100021.59
2023-05-22T13:11:12.773Z,100024.66
2023-05-22T13:13:39.740Z,100021.44
2023-05-22T13:16:06.174Z,100022.78
2023-05-22T13:18:32.662Z,100018.38
2023-05-22T13:21:00.122Z,100005.94
2023-05-22T13:23:26.484Z,100003.94
2023-05-22T13:25:52.991Z,100012.78
2023-05-22T13:28:19.373Z,100007.16
2023-05-22T13:30:45.857Z,100005.28
2023-05-22T13:33:13.410Z,100002.06
2023-05-22T13:35:40.062Z,99996.97
2023-05-22T13:38:06.766Z,100000.38
2023-05-22T13:40:33.136Z,100005.41
2023-05-22T13:42:59.528Z,100000.88
2023-05-22T13:45:27.192Z,100001.72
2023-05-22T13:47:53.651Z,99997.38
2023-05-22T13:50:20.096Z,99993.19
2023-05-22T13:52:46.563Z,100000.34
2023-05-22T13:55:12.975Z,99994.97
2023-05-22T13:57:41.812Z,99992.38
2023-05-22T14:00:09.650Z,99998.22
2023-05-22T14:02:36.271Z,99997.59
2023-05-22T14:05:02.802Z,99997.56
2023-05-22T14:07:29.261Z,99987.13
2023-05-22T14:09:55.774Z,99989.72
2023-05-22T14:12:22.180Z,99994.34
2023-05-22T14:14:48.521Z,99981.94
2023-05-22T14:17:14.874Z,99989.88
2023-05-22T14:19:41.314Z,99981.50
2023-05-22T14:22:07.922Z,99975.44
2023-05-22T14:24:34.330Z,99978.19
2023-05-22T14:27:00.856Z,99983.53
2023-05-22T14:29:27.865Z,99983.63
2023-05-22T14:31:55.446Z,99980.69
2023-05-22T14:34:21.853Z,99986.97
2023-05-22T14:36:48.474Z,99969.19
2023-05-22T14:39:15.043Z,99978.13
2023-05-22T14:41:41.404Z,99980.69
2023-05-22T14:44:07.815Z,99985.88
2023-05-22T14:46:34.387Z,99981.06
2023-05-22T14:49:00.817Z,99985.25
2023-05-22T14:51:27.193Z,99979.34
2023-05-22T14:53:53.570Z,99972.28
2023-05-22T14:56:19.971Z,99988.41
2023-05-22T14:58:46.345Z,99988.44
2023-05-22T15:01:12.830Z,99987.69
2023-05-22T15:03:39.266Z,99989.00
2023-05-22T15:06:05.989Z,99988.56
2023-05-22T15:08:32.328Z,99993.94
2023-05-22T15:10:58.697Z,99995.16
2023-05-22T15:13:25.017Z,99990.09
2023-05-22T15:15:51.395Z,99996.19
2023-05-22T15:18:17.821Z,99999.75
2023-05-22T15:20:44.285Z,99987.81
2023-05-22T15:23:10.676Z,99985.00
2023-05-22T15:25:37.548Z,99986.47
2023-05-22T15:28:07.731Z,99983.41
2023-05-22T15:30:36.378Z,99982.44
2023-05-22T15:33:03.611Z,99981.69
2023-05-22T15:35:31.006Z,99966.94
2023-05-22T15:38:00.690Z,99966.59
2023-05-22T15:40:27.103Z,99955.19
2023-05-22T15:42:54.055Z,99946.06
2023-05-22T15:45:20.881Z,99951.31
2023-05-22T15:47:47.639Z,99963.59
2023-05-22T15:50:14.008Z,99968.00
2023-05-22T15:52:40.605Z,99974.50
2023-05-22T15:55:07.285Z,99969.25
2023-05-22T15:57:34.155Z,99979.06
2023-05-22T16:00:00.582Z,99989.53
2023-05-22T16:02:27.031Z,99999.50
2023-05-22T16:04:53.489Z,99984.38
2023-05-22T16:07:20.126Z,99988.88
2023-05-22T16:09:46.626Z,100013.97
2023-05-22T16:12:13.101Z,100049.50
2023-05-22T16:14:40.219Z,100053.34
2023-05-22T16:17:06.958Z,100051.84
2023-05-22T16:19:33.783Z,100051.53
2023-05-22T16:22:00.318Z,100053.63
2023-05-22T16:24:26.840Z,100051.47
2023-05-22T16:26:53.247Z,100061.31
2023-05-22T16:29:20.612Z,100056.94
2023-05-22T16:31:47.386Z,100058.13
2023-05-22T16:34:13.851Z,100042.97
2023-05-22T16:36:40.276Z,100043.03
2023-05-22T16:39:06.611Z,100046.56
2023-05-22T16:41:32.983Z,100053.31
2023-05-22T16:43:59.332Z,100061.44
2023-05-22T16:46:27.785Z,100055.50
2023-05-22T16:48:54.247Z,100048.13
2023-05-22T16:51:20.636Z,100057.56
2023-05-22T16:53:47.095Z,100059.31
2023-05-22T16:56:14.466Z,100054.22
2023-05-22T16:58:40.892Z,100045.41
2023-05-22T17:01:07.447Z,100046.97
2023-05-22T17:03:34.271Z,100051.28
2023-05-22T17:06:00.935Z,100057.56
2023-05-22T17:08:28.345Z,100074.03
2023-05-22T17:10:55.720Z,100067.47
2023-05-22T17:13:22.138Z,100070.03
2023-05-22T17:15:48.765Z,100068.94
2023-05-22T17:18:19.478Z,100077.16
2023-05-22T17:20:47.314Z,100082.56
2023-05-22T17:23:14.201Z,100088.44
2023-05-22T17:25:41.539Z,100084.63
2023-05-22T17:28:09.048Z,100092.53
2023-05-22T17:30:35.666Z,100081.81
2023-05-22T17:33:03.500Z,100102.75
2023-05-22T17:35:30.367Z,100107.97
2023-05-22T17:37:57.184Z,100103.31
2023-05-22T17:40:29.601Z,100104.19
2023-05-22T17:43:06.726Z,100096.88
2023-05-22T17:45:33.247Z,100103.31
2023-05-22T17:47:59.759Z,100095.81
2023-05-22T17:50:26.266Z,100097.59
2023-05-22T17:52:52.694Z,100095.16
2023-05-22T17:55:20.824Z,100103.81
2023-05-22T17:57:47.335Z,100114.94
2023-05-22T18:00:14.496Z,100113.47
2023-05-22T18:02:41.211Z,100111.25
2023-05-22T18:05:08.443Z,100121.00
2023-05-22T18:07:34.829Z,100120.88
2023-05-22T18:10:01.182Z,100135.34
2023-05-22T18:12:31.703Z,100121.94
2023-05-22T18:14:58.977Z,100129.13
2023-05-22T18:17:25.368Z,100120.59
2023-05-22T18:19:51.795Z,100118.91
2023-05-22T18:22:18.199Z,100123.13
2023-05-22T18:24:44.646Z,100120.88
2023-05-22T18:27:10.994Z,100123.00
2023-05-22T18:29:37.434Z,100121.31
2023-05-22T18:32:05.018Z,100122.13
2023-05-22T18:34:32.205Z,100123.50
2023-05-22T18:36:59.598Z,100112.97
2023-05-22T18:39:26.027Z,100110.59
2023-05-22T18:41:52.390Z,100116.97
2023-05-22T18:44:18.853Z,100118.91
2023-05-22T18:46:45.433Z,100119.66
2023-05-22T18:49:11.856Z,100123.19
2023-05-22T18:51:38.549Z,100118.28
2023-05-22T18:54:04.959Z,100119.47
2023-05-22T18:56:31.647Z,100125.00
2023-05-22T18:58:58.001Z,100129.13
2023-05-22T19:01:24.385Z,100125.44
2023-05-22T19:03:50.826Z,100130.72
2023-05-22T19:06:18.751Z,100120.53
2023-05-22T19:08:45.574Z,100134.16
2023-05-22T19:11:11.935Z,100116.94
2023-05-22T19:13:38.336Z,100127.84
2023-05-22T19:16:04.730Z,100119.66
2023-05-22T19:18:31.215Z,100133.28
2023-05-22T19:20:57.608Z,100116.69
2023-05-22T19:23:24.008Z,100126.16
2023-05-22T19:25:50.768Z,100125.41
2023-05-22T19:28:17.135Z,100128.69
2023-05-22T19:30:43.785Z,100143.28
2023-05-22T19:33:11.091Z,100136.75
2023-05-22T19:35:38.506Z,100144.91
2023-05-22T19:38:04.848Z,100153.75
2023-05-22T19:40:31.233Z,100154.38
2023-05-22T19:42:57.899Z,100158.81
2023-05-22T19:45:25.893Z,100152.75
2023-05-22T19:47:52.472Z,100168.94
2023-05-22T19:50:18.957Z,100156.41
2023-05-22T19:52:45.460Z,100178.47
2023-05-22T19:55:11.790Z,100174.31
2023-05-22T19:57:38.238Z,100186.06
2023-05-22T20:00:07.418Z,100179.16
2023-05-22T20:02:33.825Z,100178.28
2023-05-22T20:05:01.828Z,100187.31
2023-05-22T20:07:28.673Z,100193.97
2023-05-22T20:09:55.012Z,100192.72
2023-05-22T20:12:21.665Z,100197.34
2023-05-22T20:14:48.045Z,100194.19
2023-05-22T20:17:14.506Z,100203.03
2023-05-22T20:19:45.126Z,100203.84
2023-05-22T20:22:11.780Z,100201.06
2023-05-22T20:24:38.391Z,100213.97
2023-05-22T20:27:06.926Z,100206.13
2023-05-22T20:29:33.568Z,100203.94
2023-05-22T20:31:59.925Z,100211.06
2023-05-22T20:34:26.609Z,100208.22
2023-05-22T20:36:54.086Z,100198.88
2023-05-22T20:39:22.101Z,100205.09
2023-05-22T20:41:51.121Z,100183.31
2023-05-22T20:44:18.596Z,100195.69
2023-05-22T20:46:44.998Z,100196.75
2023-05-22T20:49:12.322Z,100204.91
2023-05-22T20:51:39.268Z,100207.97
2023-05-22T20:54:06.011Z,100219.63
2023-05-22T20:56:32.349Z,100211.44
2023-05-22T20:58:58.756Z,100211.41
2023-05-22T21:01:25.506Z,100223.78
2023-05-22T21:03:54.432Z,100218.66
2023-05-22T21:06:20.864Z,100233.06
2023-05-22T21:08:47.312Z,100238.19
2023-05-22T21:11:14.007Z,100228.84
2023-05-22T21:13:40.476Z,100234.38
2023-05-22T21:16:07.124Z,100242.44
2023-05-22T21:18:33.611Z,100231.00
2023-05-22T21:21:00.131Z,100238.22
2023-05-22T21:23:26.512Z,100236.41
2023-05-22T21:25:52.908Z,100241.25
2023-05-22T21:28:19.294Z,100236.19
2023-05-22T21:30:45.699Z,100244.22
2023-05-22T21:33:12.151Z,100251.38
2023-05-22T21:35:38.528Z,100242.47
2023-05-22T21:38:04.986Z,100247.13
2023-05-22T21:40:31.319Z,100255.78
2023-05-22T21:42:57.679Z,100247.16
2023-05-22T21:45:24.113Z,100245.44
2023-05-22T21:47:50.618Z,100255.41
2023-05-22T21:50:17.033Z,100250.22
2023-05-22T21:52:44.174Z,100252.88
2023-05-22T21:55:10.723Z,100253.94
2023-05-22T21:57:37.129Z,100238.94
2023-05-22T22:00:04.184Z,100244.03
2023-05-22T22:02:30.626Z,100250.34
2023-05-22T22:04:56.959Z,100240.81
2023-05-22T22:07:23.305Z,100250.47
2023-05-22T22:09:49.659Z,100235.97
2023-05-22T22:12:15.989Z,100243.56
2023-05-22T22:14:42.370Z,100239.91
2023-05-22T22:17:08.985Z,100247.91
2023-05-22T22:19:36.148Z,100257.69
2023-05-22T22:22:02.985Z,100250.72
2023-05-22T22:24:29.648Z,100258.66
2023-05-22T22:26:56.651Z,100246.41
2023-05-22T22:29:23.025Z,100241.72
2023-05-22T22:31:49.498Z,100247.09
2023-05-22T22:34:15.906Z,100252.53
2023-05-22T22:36:42.350Z,100256.13
2023-05-22T22:39:08.746Z,100256.81
2023-05-22T22:41:35.095Z,100253.25
2023-05-22T22:44:01.525Z,100256.91
2023-05-22T22:46:27.936Z,100266.06
2023-05-22T22:48:55.342Z,100249.19
2023-05-22T22:51:22.077Z,100273.19
2023-05-22T22:53:48.457Z,100267.84
2023-05-22T22:56:14.864Z,100279.53
2023-05-22T22:58:41.229Z,100270.66
2023-05-22T23:01:07.659Z,100271.41
2023-05-22T23:03:34.042Z,100282.13
2023-05-22T23:06:00.395Z,100279.41
2023-05-22T23:08:26.951Z,100279.44
2023-05-22T23:10:53.297Z,100279.44
2023-05-22T23:13:19.713Z,100277.78
2023-05-22T23:15:46.379Z,100276.16
2023-05-22T23:18:13.899Z,100279.69
2023-05-22T23:20:40.289Z,100275.41
2023-05-22T23:23:06.682Z,100279.97
2023-05-22T23:25:33.052Z,100276.25
2023-05-22T23:27:59.396Z,100296.78
2023-05-22T23:30:25.820Z,100295.94
2023-05-22T23:32:52.293Z,100284.28
2023-05-22T23:35:18.641Z,100292.38
2023-05-22T23:37:47.676Z,100287.03
2023-05-22T23:40:14.099Z,100299.28
2023-05-22T23:42:40.718Z,100307.25
2023-05-22T23:45:07.694Z,100293.94
2023-05-22T23:47:34.094Z,100295.59
2023-05-22T23:50:00.660Z,100295.47
2023-05-22T23:52:27.101Z,100299.00
2023-05-22T23:54:53.759Z,100308.75
2023-05-22T23:57:20.151Z,100291.75
2023-05-22T23:59:46.744Z,100304.97
